Terminal Aerodrome Forecast
Issued by NWS

Home | Current Version | Previous Version | Text Only | Print | Product List | Glossary On
Versions: 1 2 3 4 5 6 7 8 9 10 11 12 13 14 15 16 17 18 19 20 21 22
000
FTUS46 KSGX 230800 AAB
TAFCRQ
TAF AMD
KCRQ 230806Z 2308/2406 VRB02KT 1/4SM FG VV001
      TEMPO 2309/2313 1SM BR BKN003
     FM231300 VRB03KT 3SM BR SCT003
     FM231500 VRB05KT P6SM SKC=

USA.gov is the U.S. government's official web portal to all federal, state and local government web resources and services.